Time;durP1;ratioP1;P1;durP2;ratioP2;P2;SDS_P1;SDS_P2;PMS_P1;PMS_P2;Temp;Humidity;BMP_temperature;BMP_pressure;BME280_temperature;BME280_humidity;BME280_pressure;Samples;Min_cycle;Max_cycle;Signal;HPM_P1;HPM_P2
2021/10/15 04:00:29;;;;;;;3.23;2.60;;;9.10;96.30;;;;;;5940846;23;20361;-78
2021/10/15 04:02:54;;;;;;;3.00;2.67;;;9.10;96.30;;;;;;4985683;28;20429;-78
2021/10/15 04:05:20;;;;;;;3.30;2.93;;;9.00;96.30;;;;;;4973108;28;20182;-77
2021/10/15 04:07:45;;;;;;;4.70;3.80;;;9.00;96.30;;;;;;4974309;28;20182;-78
2021/10/15 04:10:11;;;;;;;8.07;5.20;;;9.00;96.30;;;;;;4986827;28;20634;-77
2021/10/15 04:12:37;;;;;;;3.83;3.43;;;9.00;96.30;;;;;;4966447;28;20201;-77
2021/10/15 04:15:05;;;;;;;5.33;3.27;;;9.10;96.30;;;;;;4972077;28;20940;-77
2021/10/15 04:17:30;;;;;;;4.47;3.23;;;9.10;96.30;;;;;;4972906;28;20178;-77
2021/10/15 04:19:56;;;;;;;8.93;7.93;;;9.00;96.30;;;;;;4973166;28;20472;-77
2021/10/15 04:22:24;;;;;;;7.30;3.60;;;9.00;96.30;;;;;;4971544;28;20214;-77
2021/10/15 04:24:50;;;;;;;3.93;3.53;;;9.00;96.30;;;;;;4971797;28;20178;-77
2021/10/15 04:27:15;;;;;;;9.07;6.67;;;9.10;96.30;;;;;;4973079;28;20445;-77
2021/10/15 04:29:41;;;;;;;3.90;3.50;;;9.10;96.30;;;;;;4971744;28;20599;-77
2021/10/15 04:32:06;;;;;;;6.13;4.20;;;9.10;96.30;;;;;;4972240;28;20205;-77
2021/10/15 04:34:32;;;;;;;6.20;4.13;;;9.10;96.30;;;;;;4973239;28;20174;-77
2021/10/15 04:36:57;;;;;;;3.50;3.20;;;9.10;96.30;;;;;;4973350;28;20210;-77
2021/10/15 04:39:23;;;;;;;3.40;3.10;;;9.10;96.30;;;;;;4974767;28;20182;-78
2021/10/15 04:41:49;;;;;;;4.20;3.80;;;9.10;96.30;;;;;;4975049;28;20210;-77
2021/10/15 04:44:14;;;;;;;6.17;5.53;;;9.10;96.30;;;;;;4976784;28;20258;-76
2021/10/15 04:46:40;;;;;;;6.80;4.30;;;9.10;96.30;;;;;;4985765;28;20642;-75
2021/10/15 04:49:05;;;;;;;13.30;8.50;;;9.10;96.30;;;;;;4975729;28;20182;-75
2021/10/15 04:51:31;;;;;;;19.67;15.00;;;9.10;96.30;;;;;;4976192;28;20280;-74
2021/10/15 04:53:56;;;;;;;15.70;12.40;;;9.00;96.30;;;;;;4983273;28;20178;-74
2021/10/15 04:56:22;;;;;;;9.43;7.50;;;9.00;96.30;;;;;;4976777;28;20190;-74
2021/10/15 04:58:48;;;;;;;26.10;15.13;;;9.10;96.30;;;;;;4976679;28;20256;-74
2021/10/15 05:01:13;;;;;;;11.50;8.60;;;9.00;96.30;;;;;;4975928;28;20213;-75
2021/10/15 05:03:38;;;;;;;53.10;34.07;;;9.00;96.30;;;;;;4976666;28;20179;-74
2021/10/15 05:06:04;;;;;;;38.20;20.20;;;9.00;96.30;;;;;;4976064;28;20192;-74
2021/10/15 05:08:32;;;;;;;20.37;12.50;;;8.90;96.30;;;;;;4976531;28;20202;-74
2021/10/15 05:10:58;;;;;;;47.50;24.00;;;8.90;96.30;;;;;;4976034;28;20213;-74
2021/10/15 05:13:24;;;;;;;29.50;20.77;;;9.00;96.30;;;;;;4975973;28;20982;-74
2021/10/15 05:15:49;;;;;;;27.63;23.27;;;9.10;96.30;;;;;;4976450;28;20175;-74
2021/10/15 05:18:15;;;;;;;6.60;5.70;;;9.10;96.30;;;;;;4976393;28;20213;-74
2021/10/15 05:20:42;;;;;;;10.80;9.13;;;9.00;96.30;;;;;;4975887;28;20208;-74
2021/10/15 05:23:08;;;;;;;7.20;4.23;;;9.10;96.30;;;;;;4970822;28;20183;-74
2021/10/15 05:25:34;;;;;;;4.73;3.63;;;9.00;96.30;;;;;;4975769;28;20431;-74
2021/10/15 05:27:59;;;;;;;3.50;3.20;;;9.00;96.30;;;;;;4975625;28;20410;-74
2021/10/15 05:30:26;;;;;;;9.93;7.67;;;9.10;96.30;;;;;;4975833;28;20949;-75
2021/10/15 05:32:53;;;;;;;10.47;7.40;;;9.20;96.30;;;;;;4975200;28;20513;-76
2021/10/15 05:35:18;;;;;;;15.00;9.03;;;9.20;96.30;;;;;;4975577;28;20817;-75
2021/10/15 05:37:44;;;;;;;12.83;7.57;;;9.30;96.30;;;;;;4974207;28;20401;-75
2021/10/15 05:40:10;;;;;;;15.20;8.70;;;9.20;96.30;;;;;;4975409;28;20224;-75
2021/10/15 05:42:36;;;;;;;10.83;4.07;;;9.30;96.30;;;;;;4973538;28;20290;-76
2021/10/15 05:45:01;;;;;;;26.07;15.60;;;9.20;96.30;;;;;;4975481;28;20504;-76
2021/10/15 05:47:27;;;;;;;11.43;5.60;;;9.20;96.30;;;;;;4975230;28;20553;-75
2021/10/15 05:49:53;;;;;;;3.07;2.77;;;9.20;96.30;;;;;;4975089;28;20167;-76
2021/10/15 05:52:29;;;;;;;9.00;5.37;;;9.20;96.30;;;;;;4962445;28;20203;-76
2021/10/15 05:55:06;;;;;;;3.93;3.27;;;9.20;96.30;;;;;;4977160;28;20317;-76
2021/10/15 06:00:02;;;;;;;2.23;2.03;;;9.30;96.30;;;;;;4975777;28;21018;-74
2021/10/15 06:02:34;;;;;;;7.93;4.40;;;9.30;96.30;;;;;;4974155;28;20829;-76
2021/10/15 06:06:48;;;;;;;3.27;2.97;;;9.40;96.30;;;;;;4963309;28;20414;-74
2021/10/15 06:09:24;;;;;;;4.20;3.40;;;9.40;96.30;;;;;;4978737;28;20433;-74
2021/10/15 06:16:13;;;;;;;7.63;4.20;;;9.50;96.30;;;;;;4968970;28;20514;-74
2021/10/15 06:18:40;;;;;;;13.13;9.47;;;9.60;96.30;;;;;;4956334;28;20387;-74
2021/10/15 06:21:06;;;;;;;2.93;2.43;;;9.70;96.30;;;;;;4959582;28;20473;-76
2021/10/15 06:23:33;;;;;;;4.50;3.37;;;9.70;96.30;;;;;;4953406;28;20426;-74
2021/10/15 06:26:01;;;;;;;5.70;3.70;;;9.60;96.30;;;;;;4964261;28;20552;-75
2021/10/15 06:28:27;;;;;;;3.57;1.90;;;9.60;96.30;;;;;;4964607;28;20417;-74
2021/10/15 06:30:53;;;;;;;4.20;1.30;;;9.70;96.30;;;;;;4964960;28;20433;-74
2021/10/15 06:33:18;;;;;;;3.30;1.50;;;9.70;96.30;;;;;;4964219;28;20270;-74
2021/10/15 06:35:44;;;;;;;2.43;1.63;;;9.70;96.30;;;;;;4960590;28;20213;-75
2021/10/15 06:38:11;;;;;;;2.57;1.37;;;9.70;96.30;;;;;;4960870;28;20544;-74
2021/10/15 06:40:37;;;;;;;3.03;1.60;;;9.70;96.30;;;;;;4958587;28;20221;-75
2021/10/15 06:43:03;;;;;;;3.83;2.30;;;9.70;96.30;;;;;;4957380;28;21120;-76
2021/10/15 06:45:28;;;;;;;2.60;1.63;;;9.70;96.30;;;;;;4962462;28;20422;-76
2021/10/15 06:47:54;;;;;;;3.13;1.30;;;9.80;96.30;;;;;;4967800;28;20186;-76
2021/10/15 06:50:19;;;;;;;2.00;1.50;;;9.80;96.30;;;;;;4961688;28;20175;-76
2021/10/15 06:52:49;;;;;;;1.90;1.23;;;9.90;96.30;;;;;;4955517;28;20201;-76
2021/10/15 06:55:20;;;;;;;1.50;1.40;;;10.00;96.30;;;;;;4958881;28;20178;-74
2021/10/15 06:57:45;;;;;;;2.10;1.57;;;10.10;96.30;;;;;;4959472;28;20533;-74
2021/10/15 07:00:13;;;;;;;2.80;1.70;;;10.10;96.30;;;;;;4972989;28;20509;-73
2021/10/15 07:02:39;;;;;;;6.80;2.10;;;10.20;96.30;;;;;;4970725;28;20206;-73
2021/10/15 07:05:05;;;;;;;4.50;2.17;;;10.20;96.30;;;;;;4973814;28;20472;-74
2021/10/15 07:07:31;;;;;;;2.80;1.60;;;10.40;96.30;;;;;;4972913;28;20897;-74
2021/10/15 07:09:59;;;;;;;1.60;1.50;;;10.40;96.30;;;;;;4958527;28;20521;-74
2021/10/15 07:12:25;;;;;;;4.20;1.73;;;10.50;96.30;;;;;;4953762;28;20219;-74
2021/10/15 07:14:51;;;;;;;3.30;2.20;;;10.70;96.30;;;;;;4953898;28;20422;-74
2021/10/15 07:17:16;;;;;;;1.90;1.70;;;10.70;96.30;;;;;;4964931;28;20485;-74
2021/10/15 07:19:42;;;;;;;2.10;1.90;;;10.80;96.30;;;;;;4973260;28;20185;-74
2021/10/15 07:22:07;;;;;;;4.47;1.83;;;10.80;96.30;;;;;;4972783;28;20210;-74
2021/10/15 07:24:33;;;;;;;2.30;1.83;;;10.80;96.30;;;;;;4973097;28;20693;-75
2021/10/15 07:26:58;;;;;;;3.13;2.20;;;10.90;96.30;;;;;;4971552;28;20174;-75
2021/10/15 07:29:23;;;;;;;2.57;2.00;;;10.90;96.30;;;;;;4971811;28;20278;-74
2021/10/15 07:31:49;;;;;;;3.63;1.90;;;11.00;96.30;;;;;;4971594;28;20629;-75
2021/10/15 07:34:15;;;;;;;3.07;2.10;;;11.20;96.30;;;;;;4969917;28;20197;-74
2021/10/15 07:36:40;;;;;;;3.70;2.33;;;11.30;96.30;;;;;;4973137;28;20535;-76
2021/10/15 07:39:06;;;;;;;3.27;2.37;;;11.30;96.30;;;;;;4972810;28;20189;-75
2021/10/15 07:41:32;;;;;;;4.37;2.10;;;11.20;96.30;;;;;;4970906;28;20669;-76
2021/10/15 07:43:58;;;;;;;3.40;2.20;;;11.30;96.30;;;;;;4972405;28;20185;-76
2021/10/15 07:46:24;;;;;;;4.57;2.13;;;11.40;96.30;;;;;;4976104;28;20432;-76
2021/10/15 07:48:49;;;;;;;1.83;1.50;;;11.50;96.30;;;;;;4991787;28;20165;-75
2021/10/15 07:51:15;;;;;;;3.73;1.80;;;11.60;96.30;;;;;;4971340;28;20211;-75
2021/10/15 07:53:41;;;;;;;7.80;3.57;;;11.90;96.30;;;;;;4953538;28;20705;-74
2021/10/15 07:56:06;;;;;;;2.33;1.97;;;12.20;96.30;;;;;;4953461;28;20257;-75
2021/10/15 07:58:32;;;;;;;3.47;1.93;;;12.00;96.30;;;;;;4952989;28;20191;-75
2021/10/15 08:00:57;;;;;;;2.20;1.50;;;12.00;96.30;;;;;;4952598;28;20265;-75
2021/10/15 08:03:23;;;;;;;1.90;1.50;;;12.30;96.30;;;;;;4960341;28;20209;-75
2021/10/15 08:05:48;;;;;;;3.33;2.20;;;12.30;96.30;;;;;;4972247;28;20162;-74
2021/10/15 08:08:14;;;;;;;3.73;1.73;;;12.40;96.30;;;;;;4957942;28;20689;-74
2021/10/15 08:10:39;;;;;;;2.00;1.70;;;12.30;96.30;;;;;;4967737;28;20202;-75
2021/10/15 08:13:05;;;;;;;2.77;2.00;;;12.50;96.30;;;;;;4952426;28;20211;-75
2021/10/15 08:15:31;;;;;;;4.87;2.20;;;12.40;96.30;;;;;;4953416;28;20171;-75
2021/10/15 08:17:56;;;;;;;2.27;1.70;;;12.20;96.30;;;;;;4953192;28;20259;-75
2021/10/15 08:20:23;;;;;;;2.67;2.03;;;12.20;96.30;;;;;;4953204;28;20299;-74
2021/10/15 08:22:50;;;;;;;3.10;2.30;;;12.00;96.30;;;;;;4952183;28;20303;-73
2021/10/15 08:25:16;;;;;;;3.03;2.30;;;12.00;96.30;;;;;;4952787;28;20766;-74
2021/10/15 08:27:42;;;;;;;3.33;2.47;;;11.80;96.30;;;;;;4959993;28;20430;-74
2021/10/15 08:30:08;;;;;;;5.10;2.37;;;11.80;96.30;;;;;;4955118;28;20211;-74
2021/10/15 08:32:36;;;;;;;5.23;2.70;;;11.70;96.30;;;;;;4968709;28;20484;-74
2021/10/15 08:35:01;;;;;;;4.60;2.17;;;11.80;96.30;;;;;;4972165;28;20186;-74
2021/10/15 08:37:27;;;;;;;4.10;2.37;;;12.10;96.30;;;;;;4952205;28;20434;-73
2021/10/15 08:39:54;;;;;;;5.07;2.40;;;12.20;96.30;;;;;;4960020;28;20230;-74
2021/10/15 08:42:19;;;;;;;5.30;2.17;;;12.20;96.30;;;;;;4952456;28;20301;-74
2021/10/15 08:44:48;;;;;;;3.80;2.30;;;12.30;96.30;;;;;;4971155;28;20880;-75
2021/10/15 08:47:16;;;;;;;2.77;1.90;;;12.20;96.30;;;;;;4972304;28;20170;-74
2021/10/15 08:49:44;;;;;;;3.60;2.00;;;12.00;96.30;;;;;;4972334;28;20901;-74
2021/10/15 08:52:14;;;;;;;2.37;2.03;;;11.80;96.30;;;;;;4971732;28;21015;-76
2021/10/15 08:54:43;;;;;;;8.60;2.40;;;11.60;96.30;;;;;;4971911;28;20445;-76
2021/10/15 08:57:10;;;;;;;3.00;1.63;;;11.60;96.30;;;;;;4983086;28;20468;-74
2021/10/15 08:59:45;;;;;;;1.90;1.73;;;11.70;96.30;;;;;;4971407;28;20425;-76
2021/10/15 09:02:32;;;;;;;3.70;2.30;;;12.00;96.30;;;;;;4971048;28;20537;-74
2021/10/15 09:04:58;;;;;;;5.20;1.73;;;12.50;96.30;;;;;;4971920;28;20435;-74
2021/10/15 09:07:26;;;;;;;5.60;1.90;;;13.60;96.30;;;;;;4972294;28;20409;-75
2021/10/15 09:10:11;;;;;;;3.40;1.90;;;14.60;96.30;;;;;;4972019;28;20406;-76
2021/10/15 09:12:56;;;;;;;1.83;1.70;;;14.80;96.30;;;;;;4971425;28;20587;-75
2021/10/15 09:15:32;;;;;;;2.93;1.73;;;15.30;96.30;;;;;;4968358;28;20421;-75
2021/10/15 09:18:08;;;;;;;1.87;1.63;;;15.00;96.30;;;;;;4952580;29;20406;-74
2021/10/15 09:20:35;;;;;;;1.70;1.40;;;15.10;96.30;;;;;;4952841;28;20391;-75
2021/10/15 09:23:01;;;;;;;2.53;1.50;;;14.90;96.30;;;;;;4971700;28;20421;-75
2021/10/15 09:25:47;;;;;;;1.70;1.60;;;14.60;96.30;;;;;;4965106;28;20819;-74
2021/10/15 09:28:16;;;;;;;2.73;1.50;;;14.20;96.30;;;;;;4971565;28;20418;-74
2021/10/15 09:30:43;;;;;;;3.30;2.17;;;14.50;96.30;;;;;;4960900;28;20957;-76
2021/10/15 09:33:10;;;;;;;1.70;1.40;;;14.10;96.30;;;;;;4966762;28;20410;-75
2021/10/15 09:35:36;;;;;;;2.60;1.13;;;14.40;96.30;;;;;;4975388;28;20412;-74
2021/10/15 09:38:05;;;;;;;4.30;1.40;;;14.60;96.30;;;;;;4963176;28;20441;-74
2021/10/15 09:40:36;;;;;;;2.60;1.57;;;15.10;96.30;;;;;;4958088;28;20415;-76
2021/10/15 09:43:06;;;;;;;2.47;1.40;;;15.90;96.30;;;;;;4955594;28;20415;-75
2021/10/15 09:45:38;;;;;;;1.90;1.33;;;16.50;96.30;;;;;;4961532;28;20522;-75
2021/10/15 09:48:38;;;;;;;1.27;1.17;;;15.70;96.30;;;;;;4974729;28;20929;-74
2021/10/15 09:51:15;;;;;;;1.80;1.40;;;14.60;96.30;;;;;;4961561;28;20457;-75
2021/10/15 09:53:42;;;;;;;1.73;1.20;;;14.60;96.30;;;;;;4973842;28;20418;-74
2021/10/15 09:56:08;;;;;;;3.40;1.60;;;14.70;96.30;;;;;;4963302;28;20509;-76
2021/10/15 09:58:33;;;;;;;1.30;1.20;;;14.30;96.30;;;;;;4974687;28;20468;-76
2021/10/15 10:00:59;;;;;;;1.67;1.27;;;14.70;96.30;;;;;;4973885;28;20210;-75
2021/10/15 10:03:28;;;;;;;1.50;1.27;;;14.90;96.30;;;;;;4974335;28;20171;-75
2021/10/15 10:05:54;;;;;;;4.30;1.03;;;15.10;96.30;;;;;;4973722;28;20193;-76
2021/10/15 10:08:19;;;;;;;1.20;1.10;;;15.80;96.30;;;;;;4974275;28;20398;-77
2021/10/15 10:10:45;;;;;;;1.53;1.43;;;16.00;96.30;;;;;;4974130;28;20436;-77
2021/10/15 10:13:13;;;;;;;1.27;1.10;;;16.30;96.30;;;;;;4988824;28;20646;-77
2021/10/15 10:15:44;;;;;;;1.00;0.90;;;16.70;96.30;;;;;;4970385;28;20423;-77
2021/10/15 10:20:51;;;;;;;0.97;0.80;;;16.40;96.30;;;;;;4973688;28;20446;-77
2021/10/15 10:23:31;;;;;;;1.20;1.00;;;15.70;96.30;;;;;;4970978;28;20414;-75
2021/10/15 10:25:58;;;;;;;2.00;1.13;;;15.50;96.30;;;;;;4962445;28;20476;-74
2021/10/15 10:28:24;;;;;;;1.20;0.90;;;15.40;96.30;;;;;;4974079;28;20418;-74
2021/10/15 10:30:53;;;;;;;1.30;0.80;;;15.30;96.30;;;;;;4973969;28;20464;-76
2021/10/15 10:33:20;;;;;;;1.77;0.90;;;15.50;96.30;;;;;;4973225;28;20436;-76
2021/10/15 10:35:46;;;;;;;1.10;1.00;;;15.80;96.30;;;;;;4973888;28;20402;-75
2021/10/15 10:38:23;;;;;;;1.23;0.87;;;15.60;96.30;;;;;;4954704;28;20403;-75
2021/10/15 10:41:00;;;;;;;2.60;1.00;;;15.10;96.30;;;;;;4954862;28;20430;-75
2021/10/15 10:43:55;;;;;;;1.30;0.90;;;15.10;96.30;;;;;;4955097;28;20415;-75
2021/10/15 10:46:22;;;;;;;1.50;1.00;;;15.00;96.30;;;;;;4955762;28;20807;-75
2021/10/15 10:48:50;;;;;;;4.30;1.27;;;14.90;96.30;;;;;;4973375;28;20429;-75
2021/10/15 10:51:20;;;;;;;6.00;1.07;;;14.80;96.30;;;;;;4967858;28;20508;-73
2021/10/15 10:54:01;;;;;;;1.20;0.90;;;14.90;96.30;;;;;;4974078;28;20445;-74
2021/10/15 10:56:39;;;;;;;1.20;0.97;;;14.90;96.30;;;;;;4974161;28;20425;-74
2021/10/15 10:59:23;;;;;;;1.87;0.97;;;14.90;96.30;;;;;;4974370;28;20475;-74
2021/10/15 11:01:58;;;;;;;1.10;0.80;;;15.00;96.30;;;;;;4963119;28;20891;-74
2021/10/15 11:04:31;;;;;;;1.40;0.70;;;15.00;96.30;;;;;;4959098;28;20937;-74
2021/10/15 11:06:58;;;;;;;1.43;0.93;;;15.30;96.30;;;;;;4954678;28;20431;-75
2021/10/15 11:09:50;;;;;;;2.00;1.00;;;15.50;96.30;;;;;;4954835;28;20938;-75
2021/10/15 11:12:41;;;;;;;1.57;0.90;;;15.50;96.30;;;;;;4954162;28;20445;-74
2021/10/15 11:15:14;;;;;;;1.67;0.90;;;15.20;96.30;;;;;;4953684;28;20501;-74
2021/10/15 11:17:47;;;;;;;1.00;0.70;;;14.70;96.30;;;;;;4972737;28;20426;-74
2021/10/15 11:20:16;;;;;;;2.03;0.90;;;14.60;96.30;;;;;;4972815;28;20414;-75
2021/10/15 11:23:03;;;;;;;0.90;0.77;;;14.40;96.30;;;;;;4970737;28;20461;-76
2021/10/15 11:25:41;;;;;;;2.27;0.90;;;14.40;96.30;;;;;;4971261;28;20422;-75
2021/10/15 11:28:14;;;;;;;1.20;0.70;;;14.10;96.30;;;;;;4972563;28;20516;-76
2021/10/15 11:30:48;;;;;;;2.00;1.00;;;14.00;96.30;;;;;;4972343;28;20454;-77
2021/10/15 11:33:16;;;;;;;1.10;0.90;;;14.10;96.30;;;;;;4971912;28;20410;-77
2021/10/15 11:35:49;;;;;;;1.30;1.13;;;13.90;96.30;;;;;;4972293;28;21043;-74
2021/10/15 11:38:22;;;;;;;2.17;1.00;;;13.80;96.30;;;;;;4972227;28;20481;-76
2021/10/15 11:41:03;;;;;;;4.30;1.10;;;13.90;96.30;;;;;;4969827;28;20433;-75
2021/10/15 11:43:31;;;;;;;2.03;1.00;;;13.90;96.30;;;;;;4969800;28;20480;-75
2021/10/15 11:45:59;;;;;;;1.00;0.90;;;14.00;96.30;;;;;;4974606;28;20474;-76
2021/10/15 11:48:40;;;;;;;1.20;0.97;;;14.00;96.30;;;;;;4972080;28;20420;-76
2021/10/15 11:51:08;;;;;;;1.30;1.10;;;14.00;96.30;;;;;;4971722;28;20434;-76
2021/10/15 11:53:40;;;;;;;2.50;1.30;;;14.10;96.30;;;;;;4972393;28;20421;-76
2021/10/15 11:56:08;;;;;;;0.93;0.70;;;14.70;96.30;;;;;;4973351;28;20492;-76
2021/10/15 11:58:36;;;;;;;3.23;1.30;;;15.10;96.30;;;;;;4972091;28;20783;-76
2021/10/15 12:01:15;;;;;;;1.27;0.97;;;15.20;96.30;;;;;;4971696;28;21015;-76
2021/10/15 12:03:50;;;;;;;1.20;1.00;;;14.90;96.30;;;;;;4968903;28;20736;-76
2021/10/15 12:06:38;;;;;;;3.00;1.13;;;14.20;96.30;;;;;;4973224;28;21103;-76
2021/10/15 12:09:15;;;;;;;1.57;1.30;;;13.50;96.30;;;;;;4972496;28;20416;-76
2021/10/15 12:14:29;;;;;;;2.07;1.50;;;13.10;96.30;;;;;;5576069;23;20853;-76
2021/10/15 12:16:58;;;;;;;3.43;1.87;;;12.80;96.30;;;;;;4969698;28;20476;-76
2021/10/15 12:19:31;;;;;;;5.97;2.00;;;12.60;96.30;;;;;;4970598;28;20422;-76
2021/10/15 12:21:56;;;;;;;5.40;1.70;;;12.30;96.30;;;;;;4972259;28;20457;-76
2021/10/15 12:24:32;;;;;;;2.47;1.80;;;12.10;96.30;;;;;;4973233;28;20437;-76
2021/10/15 12:27:24;;;;;;;3.33;2.20;;;12.00;96.30;;;;;;4972825;28;20241;-76
2021/10/15 12:29:53;;;;;;;3.77;2.83;;;12.10;96.30;;;;;;4973132;28;20731;-76
2021/10/15 12:32:39;;;;;;;3.60;2.33;;;12.20;96.30;;;;;;4973081;28;20441;-76
2021/10/15 12:35:14;;;;;;;3.00;2.10;;;12.10;96.30;;;;;;4973124;28;20402;-76
2021/10/15 12:37:56;;;;;;;3.67;2.50;;;11.90;96.30;;;;;;4973027;28;20431;-76
2021/10/15 12:40:28;;;;;;;5.57;2.43;;;11.90;96.30;;;;;;4971880;28;20409;-76
2021/10/15 12:43:06;;;;;;;4.73;2.20;;;11.80;96.30;;;;;;4972881;28;20449;-76
2021/10/15 12:45:36;;;;;;;2.93;2.00;;;11.70;96.30;;;;;;4971583;28;20426;-76
2021/10/15 12:48:29;;;;;;;2.60;2.30;;;11.60;96.30;;;;;;4972017;28;20414;-76
2021/10/15 12:51:00;;;;;;;3.10;2.17;;;11.70;96.30;;;;;;4958063;28;20438;-76
2021/10/15 12:53:26;;;;;;;4.50;2.10;;;11.90;96.30;;;;;;4953700;28;20410;-76
2021/10/15 12:55:59;;;;;;;3.37;1.87;;;12.00;96.30;;;;;;4953630;28;20390;-76
2021/10/15 12:58:26;;;;;;;2.50;1.83;;;12.10;96.30;;;;;;4952474;28;20438;-76
2021/10/15 13:00:53;;;;;;;3.60;2.20;;;12.10;96.30;;;;;;4955908;28;20922;-76
2021/10/15 13:03:19;;;;;;;6.83;2.60;;;12.10;96.30;;;;;;4957272;28;20410;-76
2021/10/15 13:05:45;;;;;;;3.67;1.97;;;12.10;96.30;;;;;;4957416;28;20413;-76
2021/10/15 13:08:15;;;;;;;3.50;2.30;;;12.10;96.30;;;;;;4957430;28;20171;-76
2021/10/15 13:10:41;;;;;;;4.30;2.63;;;12.20;96.30;;;;;;4957196;28;20441;-76
2021/10/15 13:13:06;;;;;;;2.73;2.10;;;12.10;96.30;;;;;;4970522;28;20917;-75
2021/10/15 13:15:32;;;;;;;6.00;2.77;;;12.10;96.30;;;;;;4976510;28;20562;-74
2021/10/15 13:17:58;;;;;;;2.57;2.00;;;12.10;96.30;;;;;;4976321;28;20186;-75
2021/10/15 13:20:27;;;;;;;6.63;2.90;;;12.00;96.30;;;;;;4976243;28;20653;-74
2021/10/15 13:22:54;;;;;;;3.00;2.57;;;12.10;96.30;;;;;;4975899;28;20453;-74
2021/10/15 13:25:21;;;;;;;3.83;2.57;;;12.10;96.30;;;;;;4976099;28;20964;-74
2021/10/15 13:27:46;;;;;;;4.50;2.93;;;11.90;96.30;;;;;;4976166;28;20452;-74
2021/10/15 13:30:12;;;;;;;3.70;2.80;;;11.80;96.30;;;;;;4976500;28;20434;-75
2021/10/15 13:32:38;;;;;;;3.53;2.43;;;11.60;96.30;;;;;;4975522;28;20198;-75
2021/10/15 13:35:05;;;;;;;2.63;2.20;;;11.60;96.30;;;;;;4975948;28;20174;-75
2021/10/15 13:37:34;;;;;;;3.60;2.40;;;11.60;96.30;;;;;;4976096;28;20414;-74
2021/10/15 13:40:01;;;;;;;5.57;3.00;;;11.40;96.30;;;;;;4975841;28;20464;-75
2021/10/15 13:49:53;;;;;;;5.00;3.17;;;11.10;96.30;;;;;;4975993;28;20406;-75
2021/10/15 13:52:20;;;;;;;4.33;3.30;;;10.90;96.30;;;;;;4974951;28;20617;-74
2021/10/15 13:54:47;;;;;;;5.47;3.60;;;10.70;96.30;;;;;;4975413;28;20174;-75
2021/10/15 13:57:15;;;;;;;4.43;3.37;;;10.50;96.30;;;;;;4975378;28;20418;-75
2021/10/15 14:00:08;;;;;;;5.57;3.83;;;10.30;96.30;;;;;;4975221;28;20457;-75
2021/10/15 14:02:34;;;;;;;4.50;3.50;;;10.10;96.30;;;;;;4974403;28;20465;-76
2021/10/15 14:05:00;;;;;;;4.40;4.00;;;10.00;96.30;;;;;;4975854;28;20426;-76
2021/10/15 14:07:26;;;;;;;5.33;3.60;;;9.90;96.30;;;;;;4975493;28;20413;-77
2021/10/15 14:09:52;;;;;;;6.67;3.93;;;9.90;96.30;;;;;;4975618;28;20418;-76
2021/10/15 14:12:19;;;;;;;3.97;3.50;;;9.80;96.30;;;;;;4973300;28;20594;-76
2021/10/15 14:14:45;;;;;;;5.67;3.87;;;9.80;96.30;;;;;;4975174;28;20192;-76
2021/10/15 14:17:10;;;;;;;7.67;3.77;;;9.80;96.30;;;;;;4974059;28;20414;-76
2021/10/15 14:19:37;;;;;;;4.37;3.27;;;9.80;96.30;;;;;;4975476;28;20574;-76
2021/10/15 14:22:04;;;;;;;4.40;3.40;;;9.80;96.30;;;;;;4974705;28;20210;-76
2021/10/15 14:24:31;;;;;;;4.97;4.00;;;9.80;96.30;;;;;;4974823;28;20950;-76
2021/10/15 14:26:56;;;;;;;4.57;3.60;;;9.80;96.30;;;;;;4975086;28;20410;-75
2021/10/15 14:29:22;;;;;;;5.97;3.80;;;9.80;96.30;;;;;;4974867;28;20412;-76
2021/10/15 14:31:47;;;;;;;5.40;4.40;;;9.80;96.30;;;;;;4974566;28;20646;-76
2021/10/15 14:34:14;;;;;;;7.50;4.20;;;9.70;96.30;;;;;;4975072;28;20186;-76
2021/10/15 14:36:39;;;;;;;6.40;4.60;;;9.70;96.30;;;;;;4975025;28;20189;-76
2021/10/15 14:39:06;;;;;;;6.40;4.50;;;9.70;96.30;;;;;;4973847;28;20429;-75
2021/10/15 14:41:33;;;;;;;5.47;4.70;;;9.70;96.30;;;;;;4973765;28;20213;-74
2021/10/15 14:43:59;;;;;;;4.97;4.57;;;9.70;96.30;;;;;;4974767;28;20413;-75
2021/10/15 14:46:24;;;;;;;7.67;4.87;;;9.70;96.30;;;;;;4974659;28;20448;-76
2021/10/15 14:48:51;;;;;;;5.20;4.70;;;9.70;96.30;;;;;;4972159;28;20198;-75
2021/10/15 14:51:17;;;;;;;8.27;5.00;;;9.70;96.30;;;;;;4973881;28;20450;-75
2021/10/15 14:53:42;;;;;;;6.13;4.90;;;9.80;96.30;;;;;;4974271;28;20182;-75
2021/10/15 14:56:08;;;;;;;5.83;5.33;;;9.80;96.30;;;;;;4974210;28;20190;-74
2021/10/15 14:58:34;;;;;;;10.70;4.67;;;9.80;96.30;;;;;;4974247;28;20261;-76
2021/10/15 15:01:02;;;;;;;8.03;4.60;;;9.80;96.30;;;;;;4971843;28;20202;-75
2021/10/15 15:03:27;;;;;;;5.90;4.47;;;9.80;96.30;;;;;;4974187;28;20201;-76
2021/10/15 15:05:53;;;;;;;7.37;4.30;;;9.70;96.30;;;;;;4972504;28;20449;-76
2021/10/15 15:08:18;;;;;;;6.50;5.07;;;9.80;96.30;;;;;;4974075;28;20716;-76
2021/10/15 15:10:44;;;;;;;5.90;4.20;;;9.70;96.30;;;;;;4974012;28;20203;-76
2021/10/15 15:13:10;;;;;;;9.03;4.83;;;9.60;96.30;;;;;;4974116;28;20293;-77
2021/10/15 15:15:36;;;;;;;8.40;4.50;;;9.60;96.30;;;;;;4974726;28;20182;-77
2021/10/15 15:18:02;;;;;;;4.87;4.23;;;9.60;96.30;;;;;;4974027;28;20444;-76
2021/10/15 15:20:28;;;;;;;5.10;4.40;;;9.50;96.30;;;;;;4973146;28;20927;-75
2021/10/15 15:22:53;;;;;;;6.13;4.23;;;9.50;96.30;;;;;;4973255;28;20457;-73
2021/10/15 15:25:19;;;;;;;9.33;4.27;;;9.50;96.30;;;;;;4974345;28;20425;-74
2021/10/15 15:27:48;;;;;;;2.03;1.80;;;9.50;96.30;;;;;;4974164;28;20185;-76
2021/10/15 15:30:13;;;;;;;1.40;1.30;;;9.20;96.30;;;;;;4972554;28;20422;-73
2021/10/15 15:32:40;;;;;;;2.07;1.27;;;8.80;96.30;;;;;;4972525;28;20457;-73
2021/10/15 15:35:07;;;;;;;1.70;1.10;;;8.50;96.30;;;;;;4971362;28;20573;-73
2021/10/15 15:37:34;;;;;;;1.63;1.20;;;8.30;96.30;;;;;;4974663;28;20508;-73
2021/10/15 15:40:02;;;;;;;1.40;1.00;;;8.20;96.30;;;;;;4973638;28;20413;-73
2021/10/15 15:42:28;;;;;;;1.37;1.13;;;8.00;96.30;;;;;;4971658;28;20461;-72
2021/10/15 15:44:54;;;;;;;1.50;1.00;;;7.90;96.30;;;;;;4973733;28;20421;-74
2021/10/15 15:47:22;;;;;;;0.90;0.63;;;7.90;96.30;;;;;;4988412;28;20182;-75
2021/10/15 15:49:50;;;;;;;1.00;0.90;;;7.80;96.30;;;;;;4973489;28;20426;-78
2021/10/15 15:52:17;;;;;;;1.30;0.77;;;7.70;96.30;;;;;;4972594;28;20432;-78
2021/10/15 15:54:42;;;;;;;1.33;0.90;;;7.60;96.30;;;;;;4973316;28;20417;-79
2021/10/15 15:57:11;;;;;;;1.70;1.07;;;7.60;96.30;;;;;;4972590;28;20433;-78
2021/10/15 15:59:37;;;;;;;1.00;0.90;;;7.60;96.30;;;;;;4972888;28;20181;-78
2021/10/15 16:02:02;;;;;;;1.73;0.90;;;7.60;96.30;;;;;;4970914;28;20457;-80
2021/10/15 16:04:28;;;;;;;1.20;0.83;;;7.70;96.30;;;;;;4972737;28;20766;-79
2021/10/15 16:06:53;;;;;;;1.13;0.73;;;7.60;96.30;;;;;;4972971;28;20304;-80
2021/10/15 16:09:19;;;;;;;5.37;1.10;;;7.60;96.30;;;;;;4972946;28;20242;-79
2021/10/15 16:11:44;;;;;;;1.10;0.87;;;7.60;96.30;;;;;;4971136;28;20572;-79
2021/10/15 16:14:10;;;;;;;2.90;1.00;;;7.60;96.30;;;;;;4971479;28;20210;-79
2021/10/15 16:16:35;;;;;;;1.17;0.90;;;7.50;96.30;;;;;;4972657;28;20229;-79
2021/10/15 16:19:01;;;;;;;3.00;1.20;;;7.50;96.30;;;;;;4973007;28;20174;-77
2021/10/15 16:21:26;;;;;;;2.30;1.10;;;7.60;96.30;;;;;;4971956;28;20210;-78
2021/10/15 16:23:52;;;;;;;3.07;1.33;;;7.60;96.30;;;;;;4971576;28;20178;-74
2021/10/15 16:26:17;;;;;;;1.20;1.00;;;7.50;96.30;;;;;;4972611;28;20824;-75
2021/10/15 16:28:43;;;;;;;4.53;1.50;;;7.50;96.30;;;;;;4972806;28;20182;-75
2021/10/15 16:31:12;;;;;;;1.47;1.30;;;7.50;96.30;;;;;;4971896;28;20260;-77
2021/10/15 16:33:41;;;;;;;2.83;1.50;;;7.50;96.30;;;;;;4971795;28;20178;-78
2021/10/15 16:36:08;;;;;;;1.80;1.30;;;7.50;96.30;;;;;;4976755;28;20445;-75
2021/10/15 16:38:35;;;;;;;2.80;1.60;;;7.60;96.30;;;;;;4976256;28;20504;-77
2021/10/15 16:41:01;;;;;;;1.70;1.30;;;7.50;96.30;;;;;;4975966;28;20929;-79
2021/10/15 16:43:26;;;;;;;1.60;1.27;;;7.50;96.30;;;;;;4975355;28;20441;-78
2021/10/15 16:45:52;;;;;;;2.90;1.73;;;7.50;96.30;;;;;;4975494;28;20174;-78
2021/10/15 16:48:17;;;;;;;1.90;1.30;;;7.50;96.30;;;;;;4975419;28;20188;-79
2021/10/15 16:50:43;;;;;;;1.70;1.20;;;7.50;96.30;;;;;;4976581;28;20221;-78
2021/10/15 16:53:08;;;;;;;2.33;1.77;;;7.50;96.30;;;;;;4975463;28;20216;-79
2021/10/15 16:55:34;;;;;;;3.73;1.90;;;7.50;96.30;;;;;;4975524;28;20521;-78
2021/10/15 16:57:59;;;;;;;2.03;1.80;;;7.50;96.30;;;;;;4975437;28;20185;-79
2021/10/15 17:00:25;;;;;;;1.97;1.50;;;7.50;96.30;;;;;;4976484;28;20232;-79
2021/10/15 17:02:50;;;;;;;1.97;1.63;;;7.50;96.30;;;;;;4974876;28;20623;-79
2021/10/15 17:05:16;;;;;;;2.70;1.67;;;7.50;96.30;;;;;;4975187;28;20298;-78
2021/10/15 17:07:41;;;;;;;1.63;1.50;;;7.50;96.30;;;;;;4976666;28;20186;-79
2021/10/15 17:10:07;;;;;;;2.43;2.17;;;7.50;96.30;;;;;;4976698;28;20233;-78
2021/10/15 17:12:32;;;;;;;2.10;1.90;;;7.50;96.30;;;;;;4974414;28;20202;-78
2021/10/15 17:14:58;;;;;;;3.40;1.70;;;7.50;96.30;;;;;;4975329;28;20329;-79
2021/10/15 17:17:23;;;;;;;2.00;1.77;;;7.60;96.30;;;;;;4976861;28;20265;-80